Millenium Air

Millenium Air Since 1998



 METAR AND TAF INFORMATION
METAR FOR LICD
ADDS - METARS form results

(0833 UTC 19 January 2021)
Data provider http://aviationweather.gov/metar/data/
 
METAR text: LICD 190820Z AUTO 04004KT 010V080 9999 FEW034/// 14/08 Q1029
Conditions at: LICD (LAMPEDUSA ISLAND, IT) observed 0820 UTC 19 January 2021
Temperature: 14.0°C (57°F)
Dewpoint: 8.0°C (46°F) [RH = 67%]
Pressure (altimeter): 30.38 inches Hg (1029.0 mb)
Winds: from the NE (40 degrees) at 5 MPH (4 knots; 2.1 m/s)
Visibility: 6 or more miles (10+ km)
Ceiling: at least 12,000 feet AGL
Clouds: few clouds at 3400 feet AGL
Weather: no significant weather observed at this time

METAR text: LICD 190750Z AUTO 36005KT 9999 FEW035/// 13/08 Q1029
Conditions at: LICD (LAMPEDUSA ISLAND, IT) observed 0750 UTC 19 January 2021
Temperature: 13.0°C (55°F)
Dewpoint: 8.0°C (46°F) [RH = 72%]
Pressure (altimeter): 30.38 inches Hg (1029.0 mb)
Winds: from the N (360 degrees) at 6 MPH (5 knots; 2.6 m/s)
Visibility: 6 or more miles (10+ km)
Ceiling: at least 12,000 feet AGL
Clouds: few clouds at 3500 feet AGL
Weather: no significant weather observed at this time

Forecast for: LICD (LAMPEDUSA ISLAND, IT)
Text: TAF LICD 190647Z 1906/2006 35008KT 9999 SCT030
Forecast period: 0600 to 2100 UTC 19 January 2021
Forecast type: FROM: standard forecast or significant change
Winds: from the N (350 degrees) at 9 MPH (8 knots; 4.1 m/s)
Visibility: 6 or more miles (10+ km)
Ceiling: at least 12,000 feet AGL
Clouds: scattered clouds at 3000 feet AGL
Weather: no significant weather forecast for this period
Text: BECMG 1921/1923 20012KT
Forecast period: 2100 UTC 19 January 2021 to 0600 UTC 20 January 2021
Forecast type: BECOMING: Conditions expected to become as follows by 2300 UTC 19 January 2021
Winds: from the SSW (200 degrees) at 14 MPH (12 knots; 6.2 m/s)
Visibility: 6 or more miles (10+ km)
Ceiling: at least 12,000 feet AGL
Clouds: scattered clouds at 3000 feet AGL
Weather: no significant weather forecast for this period

 AIRPORT MAP

 RUNWAY INFORMATION
Runway 08 Runway length 5906 ft Runway width 148 ft
Runway elevation 48 ft Runway displaced threshold 0 ft Runway heading 81
Runway 26 Runway length 5906 ft Runway width 148 ft
Runway elevation 70 ft Runway displaced threshold 0 ft Runway heading 261

 AIRPORT FREQUENCIES
Type AFIS Name INFO Frequency 122.1 MHZ

 AIRPORT NEAR NAVIGATION AIDS
Type VOR-DME Name Lampedusa Frequency 108600 KHZ
Type NDB Name Lampedusa Frequency 373 KHZ